Lanesville, New York
Current Conditions -  °F | °C
As of 1:53 PM on Friday 21 Nov 2014 (Local Time) from KPOU Reporting Station
Scattered Clouds Scattered Clouds  
Wind Chill: 28°   Ceiling: Unl
Heat Index: 36°   Visibility: 10mi
Dew Point:   Wind: 13mph
Humidity: 33%   Direction: 320°NW
Pressure: 30.29"   Gusts: NA
Location:  42.14°N, 74.27°W
Report Text: KPOU 211853Z 32011KT 10SM SCT060 02/M13 A3029 RMK AO2 SLP256 T00221128
Loading
Personal Weather Stations






























Interactive Weather Map New forecast layout! Learn more

10-Day Weather Forecast

Advertisements
Track Severe Weather on mobile